sensor_id;sensor_type;location;lat;lon;timestamp;pressure;altitude;pressure_sealevel;temperature;humidity
46412;BME280;32113;42.012;24.870;2023-04-28T00:00:28;99195.72;;;13.60;35.90
46412;BME280;32113;42.012;24.870;2023-04-28T00:02:53;99192.31;;;13.58;35.91
46412;BME280;32113;42.012;24.870;2023-04-28T00:05:19;99201.78;;;13.58;35.44
46412;BME280;32113;42.012;24.870;2023-04-28T00:07:45;99196.81;;;13.47;35.97
46412;BME280;32113;42.012;24.870;2023-04-28T00:10:10;99198.22;;;13.19;35.75
46412;BME280;32113;42.012;24.870;2023-04-28T00:12:36;99199.88;;;13.22;35.61
46412;BME280;32113;42.012;24.870;2023-04-28T00:15:01;99194.00;;;13.13;35.78
46412;BME280;32113;42.012;24.870;2023-04-28T00:17:27;99194.94;;;13.11;35.83
46412;BME280;32113;42.012;24.870;2023-04-28T00:19:53;99192.28;;;13.14;36.04
46412;BME280;32113;42.012;24.870;2023-04-28T00:22:18;99194.75;;;13.20;35.17
46412;BME280;32113;42.012;24.870;2023-04-28T00:24:43;99200.00;;;13.14;36.17
46412;BME280;32113;42.012;24.870;2023-04-28T00:27:09;99196.59;;;13.13;35.74
46412;BME280;32113;42.012;24.870;2023-04-28T00:29:34;99189.00;;;13.06;36.34
46412;BME280;32113;42.012;24.870;2023-04-28T00:32:00;99189.84;;;13.06;36.00
46412;BME280;32113;42.012;24.870;2023-04-28T00:34:26;99192.28;;;13.14;35.72
46412;BME280;32113;42.012;24.870;2023-04-28T00:36:52;99192.16;;;13.22;36.43
46412;BME280;32113;42.012;24.870;2023-04-28T00:39:17;99194.47;;;13.34;36.32
46412;BME280;32113;42.012;24.870;2023-04-28T00:41:42;99192.78;;;13.33;36.28
46412;BME280;32113;42.012;24.870;2023-04-28T00:44:07;99193.09;;;13.18;35.54
46412;BME280;32113;42.012;24.870;2023-04-28T00:46:33;99193.09;;;13.16;35.65
46412;BME280;32113;42.012;24.870;2023-04-28T00:48:58;99181.91;;;13.17;36.06
46412;BME280;32113;42.012;24.870;2023-04-28T00:51:23;99194.22;;;13.03;36.06
46412;BME280;32113;42.012;24.870;2023-04-28T00:53:49;99200.88;;;13.14;35.90
46412;BME280;32113;42.012;24.870;2023-04-28T00:56:15;99192.06;;;13.26;36.25
46412;BME280;32113;42.012;24.870;2023-04-28T00:58:40;99193.59;;;13.35;35.77
46412;BME280;32113;42.012;24.870;2023-04-28T01:01:07;99197.72;;;13.46;34.86
46412;BME280;32113;42.012;24.870;2023-04-28T01:03:33;99188.50;;;13.32;36.32
46412;BME280;32113;42.012;24.870;2023-04-28T01:05:58;99184.91;;;13.39;36.05
46412;BME280;32113;42.012;24.870;2023-04-28T01:08:28;99194.44;;;13.36;35.39
46412;BME280;32113;42.012;24.870;2023-04-28T01:10:54;99193.56;;;13.37;35.62
46412;BME280;32113;42.012;24.870;2023-04-28T01:13:19;99193.50;;;13.42;35.75
46412;BME280;32113;42.012;24.870;2023-04-28T01:15:45;99196.91;;;13.42;36.14
46412;BME280;32113;42.012;24.870;2023-04-28T01:18:10;99195.13;;;13.46;36.47
46412;BME280;32113;42.012;24.870;2023-04-28T01:20:36;99194.25;;;13.47;36.49
46412;BME280;32113;42.012;24.870;2023-04-28T01:23:01;99198.63;;;13.43;36.16
46412;BME280;32113;42.012;24.870;2023-04-28T01:25:26;99191.84;;;13.37;36.03
46412;BME280;32113;42.012;24.870;2023-04-28T01:27:51;99190.44;;;13.21;36.59
46412;BME280;32113;42.012;24.870;2023-04-28T01:30:17;99197.69;;;13.00;36.32
46412;BME280;32113;42.012;24.870;2023-04-28T01:32:42;99197.09;;;12.85;36.02
46412;BME280;32113;42.012;24.870;2023-04-28T01:35:07;99193.97;;;12.66;36.32
46412;BME280;32113;42.012;24.870;2023-04-28T01:37:33;99194.81;;;12.67;36.91
46412;BME280;32113;42.012;24.870;2023-04-28T01:39:58;99193.88;;;12.72;36.52
46412;BME280;32113;42.012;24.870;2023-04-28T01:42:23;99193.94;;;12.69;36.32
46412;BME280;32113;42.012;24.870;2023-04-28T01:44:49;99193.91;;;12.71;36.17
46412;BME280;32113;42.012;24.870;2023-04-28T01:47:14;99197.22;;;12.78;36.60
46412;BME280;32113;42.012;24.870;2023-04-28T01:49:40;99193.00;;;12.73;36.10
46412;BME280;32113;42.012;24.870;2023-04-28T01:52:05;99189.66;;;12.68;36.38
46412;BME280;32113;42.012;24.870;2023-04-28T01:54:30;99200.28;;;12.46;36.31
46412;BME280;32113;42.012;24.870;2023-04-28T01:56:56;99195.31;;;12.34;36.07
46412;BME280;32113;42.012;24.870;2023-04-28T01:59:21;99201.44;;;12.27;36.75
46412;BME280;32113;42.012;24.870;2023-04-28T02:01:46;99196.47;;;12.16;37.11
46412;BME280;32113;42.012;24.870;2023-04-28T02:04:12;99198.91;;;12.24;37.01
46412;BME280;32113;42.012;24.870;2023-04-28T02:06:37;99192.72;;;12.37;37.56
46412;BME280;32113;42.012;24.870;2023-04-28T02:09:02;99203.16;;;12.28;36.26
46412;BME280;32113;42.012;24.870;2023-04-28T02:11:28;99202.34;;;12.24;36.52
46412;BME280;32113;42.012;24.870;2023-04-28T02:13:53;99205.41;;;11.87;41.01
46412;BME280;32113;42.012;24.870;2023-04-28T02:16:18;99212.22;;;11.88;40.36
46412;BME280;32113;42.012;24.870;2023-04-28T02:18:43;99203.88;;;11.72;38.99
46412;BME280;32113;42.012;24.870;2023-04-28T02:21:09;99201.38;;;11.65;38.29
46412;BME280;32113;42.012;24.870;2023-04-28T02:23:38;99209.19;;;11.57;38.84
46412;BME280;32113;42.012;24.870;2023-04-28T02:26:03;99208.31;;;11.60;39.41
46412;BME280;32113;42.012;24.870;2023-04-28T02:28:29;99210.84;;;11.62;37.94
46412;BME280;32113;42.012;24.870;2023-04-28T02:31:04;99207.31;;;11.72;38.44
46412;BME280;32113;42.012;24.870;2023-04-28T02:33:30;99220.84;;;11.85;37.21
46412;BME280;32113;42.012;24.870;2023-04-28T02:36:02;99226.97;;;11.75;38.49
46412;BME280;32113;42.012;24.870;2023-04-28T02:38:28;99223.63;;;11.68;39.02
46412;BME280;32113;42.012;24.870;2023-04-28T02:40:57;99224.53;;;11.64;39.19
46412;BME280;32113;42.012;24.870;2023-04-28T02:43:23;99221.94;;;11.67;39.54
46412;BME280;32113;42.012;24.870;2023-04-28T02:45:48;99228.63;;;11.79;39.93
46412;BME280;32113;42.012;24.870;2023-04-28T02:48:13;99231.25;;;11.76;39.56
46412;BME280;32113;42.012;24.870;2023-04-28T02:50:39;99228.78;;;11.66;39.70
46412;BME280;32113;42.012;24.870;2023-04-28T02:53:04;99233.03;;;11.69;40.48
46412;BME280;32113;42.012;24.870;2023-04-28T02:55:30;99239.72;;;11.84;41.06
46412;BME280;32113;42.012;24.870;2023-04-28T02:57:56;99230.22;;;11.89;40.34
46412;BME280;32113;42.012;24.870;2023-04-28T03:00:21;99242.16;;;11.93;40.55
46412;BME280;32113;42.012;24.870;2023-04-28T03:02:46;99234.72;;;11.72;38.85
46412;BME280;32113;42.012;24.870;2023-04-28T03:05:12;99238.25;;;11.61;38.48
46412;BME280;32113;42.012;24.870;2023-04-28T03:07:37;99235.56;;;11.72;38.81
46412;BME280;32113;42.012;24.870;2023-04-28T03:10:02;99237.97;;;11.85;39.28
46412;BME280;32113;42.012;24.870;2023-04-28T03:12:27;99242.19;;;11.92;38.15
46412;BME280;32113;42.012;24.870;2023-04-28T03:14:53;99236.13;;;11.96;38.82
46412;BME280;32113;42.012;24.870;2023-04-28T03:17:18;99242.94;;;12.00;38.51
46412;BME280;32113;42.012;24.870;2023-04-28T03:19:43;99245.44;;;12.03;37.72
46412;BME280;32113;42.012;24.870;2023-04-28T03:22:08;99259.09;;;12.12;37.04
46412;BME280;32113;42.012;24.870;2023-04-28T03:24:34;99242.78;;;12.14;36.00
46412;BME280;32113;42.012;24.870;2023-04-28T03:26:59;99245.56;;;11.94;36.53
46412;BME280;32113;42.012;24.870;2023-04-28T03:29:26;99259.19;;;12.02;36.35
46412;BME280;32113;42.012;24.870;2023-04-28T03:31:51;99257.50;;;12.00;35.78
46412;BME280;32113;42.012;24.870;2023-04-28T03:34:16;99264.25;;;12.12;36.26
46412;BME280;32113;42.012;24.870;2023-04-28T03:36:42;99271.84;;;12.19;36.54
46412;BME280;32113;42.012;24.870;2023-04-28T03:39:07;99271.84;;;12.21;36.76
46412;BME280;32113;42.012;24.870;2023-04-28T03:41:33;99271.72;;;12.29;36.33
46412;BME280;32113;42.012;24.870;2023-04-28T03:43:59;99276.03;;;12.28;36.71
46412;BME280;32113;42.012;24.870;2023-04-28T03:46:24;99280.16;;;12.42;36.59
46412;BME280;32113;42.012;24.870;2023-04-28T03:48:49;99289.44;;;12.52;36.14
46412;BME280;32113;42.012;24.870;2023-04-28T03:51:15;99289.38;;;12.55;36.29
46412;BME280;32113;42.012;24.870;2023-04-28T03:53:40;99297.81;;;12.64;35.94
46412;BME280;32113;42.012;24.870;2023-04-28T03:56:05;99300.34;;;12.68;36.86
46412;BME280;32113;42.012;24.870;2023-04-28T03:58:31;99299.38;;;12.74;37.66
46412;BME280;32113;42.012;24.870;2023-04-28T04:00:56;99298.59;;;12.70;38.92
46412;BME280;32113;42.012;24.870;2023-04-28T04:03:21;99311.47;;;12.70;38.67
46412;BME280;32113;42.012;24.870;2023-04-28T04:05:50;99314.44;;;12.42;39.31
46412;BME280;32113;42.012;24.870;2023-04-28T04:08:15;99319.69;;;12.34;40.32
46412;BME280;32113;42.012;24.870;2023-04-28T04:10:40;99319.63;;;12.39;40.04
46412;BME280;32113;42.012;24.870;2023-04-28T04:13:06;99323.78;;;12.48;38.84
46412;BME280;32113;42.012;24.870;2023-04-28T04:15:31;99328.19;;;12.38;39.88
46412;BME280;32113;42.012;24.870;2023-04-28T04:17:56;99335.22;;;12.28;40.67
46412;BME280;32113;42.012;24.870;2023-04-28T04:20:22;99332.09;;;11.98;41.55
46412;BME280;32113;42.012;24.870;2023-04-28T04:22:47;99338.25;;;11.85;41.97
46412;BME280;32113;42.012;24.870;2023-04-28T04:25:12;99340.97;;;11.69;42.18
46412;BME280;32113;42.012;24.870;2023-04-28T04:27:38;99335.81;;;11.70;42.81
46412;BME280;32113;42.012;24.870;2023-04-28T04:30:03;99347.75;;;11.78;43.44
46412;BME280;32113;42.012;24.870;2023-04-28T04:32:29;99343.47;;;11.77;43.51
46412;BME280;32113;42.012;24.870;2023-04-28T04:34:54;99348.59;;;11.78;42.79
46412;BME280;32113;42.012;24.870;2023-04-28T04:37:19;99358.94;;;11.72;42.22
46412;BME280;32113;42.012;24.870;2023-04-28T04:39:45;99357.59;;;11.34;43.40
46412;BME280;32113;42.012;24.870;2023-04-28T04:42:10;99358.47;;;11.29;43.90
46412;BME280;32113;42.012;24.870;2023-04-28T04:44:35;99366.16;;;11.33;43.04
46412;BME280;32113;42.012;24.870;2023-04-28T04:47:01;99367.00;;;11.36;39.37
46412;BME280;32113;42.012;24.870;2023-04-28T04:49:26;99361.78;;;11.44;37.49
46412;BME280;32113;42.012;24.870;2023-04-28T04:51:51;99365.97;;;11.51;37.28
46412;BME280;32113;42.012;24.870;2023-04-28T04:54:17;99359.03;;;11.64;36.72
46412;BME280;32113;42.012;24.870;2023-04-28T04:56:42;99371.72;;;11.80;35.74
46412;BME280;32113;42.012;24.870;2023-04-28T04:59:07;99361.53;;;11.72;35.23
46412;BME280;32113;42.012;24.870;2023-04-28T05:01:33;99361.38;;;11.85;35.76
46412;BME280;32113;42.012;24.870;2023-04-28T05:03:58;99368.16;;;11.93;35.17
46412;BME280;32113;42.012;24.870;2023-04-28T05:06:23;99368.09;;;12.00;35.92
46412;BME280;32113;42.012;24.870;2023-04-28T05:08:48;99366.31;;;12.09;34.94
46412;BME280;32113;42.012;24.870;2023-04-28T05:11:14;99363.53;;;12.27;34.74
46412;BME280;32113;42.012;24.870;2023-04-28T05:13:40;99371.28;;;12.22;34.59
46412;BME280;32113;42.012;24.870;2023-04-28T05:16:05;99368.66;;;12.30;33.91
46412;BME280;32113;42.012;24.870;2023-04-28T05:18:31;99368.53;;;12.39;34.26
46412;BME280;32113;42.012;24.870;2023-04-28T05:20:56;99366.66;;;12.51;34.16
46412;BME280;32113;42.012;24.870;2023-04-28T05:23:21;99374.34;;;12.52;33.94
46412;BME280;32113;42.012;24.870;2023-04-28T05:25:47;99379.41;;;12.58;33.74
46412;BME280;32113;42.012;24.870;2023-04-28T05:28:12;99377.84;;;12.46;33.37
46412;BME280;32113;42.012;24.870;2023-04-28T05:30:38;99376.06;;;12.53;33.10
46412;BME280;32113;42.012;24.870;2023-04-28T05:33:03;99372.59;;;12.56;33.05
46412;BME280;32113;42.012;24.870;2023-04-28T05:35:28;99369.09;;;12.61;33.86
46412;BME280;32113;42.012;24.870;2023-04-28T05:37:55;99374.22;;;12.63;32.91
46412;BME280;32113;42.012;24.870;2023-04-28T05:40:20;99374.16;;;12.66;33.27
46412;BME280;32113;42.012;24.870;2023-04-28T05:42:46;99383.41;;;12.80;33.36
46412;BME280;32113;42.012;24.870;2023-04-28T05:45:11;99384.16;;;12.90;32.77
46412;BME280;32113;42.012;24.870;2023-04-28T05:47:36;99378.94;;;12.93;33.44
46412;BME280;32113;42.012;24.870;2023-04-28T05:50:02;99382.13;;;13.09;33.51
46412;BME280;32113;42.012;24.870;2023-04-28T05:52:27;99383.75;;;13.16;32.20
46412;BME280;32113;42.012;24.870;2023-04-28T05:54:52;99386.38;;;13.11;32.41
46412;BME280;32113;42.012;24.870;2023-04-28T05:57:18;99387.03;;;13.26;33.11
46412;BME280;32113;42.012;24.870;2023-04-28T05:59:43;99389.38;;;13.42;32.63
46412;BME280;32113;42.012;24.870;2023-04-28T06:02:08;99391.78;;;13.52;32.57
46412;BME280;32113;42.012;24.870;2023-04-28T06:04:34;99390.91;;;13.53;32.35
46412;BME280;32113;42.012;24.870;2023-04-28T06:06:59;99400.38;;;13.51;32.09
46412;BME280;32113;42.012;24.870;2023-04-28T06:09:24;99395.16;;;13.58;31.96
46412;BME280;32113;42.012;24.870;2023-04-28T06:11:50;99389.41;;;13.37;31.93
46412;BME280;32113;42.012;24.870;2023-04-28T06:14:15;99406.53;;;13.43;32.08
46412;BME280;32113;42.012;24.870;2023-04-28T06:16:40;99404.25;;;13.24;31.85
46412;BME280;32113;42.012;24.870;2023-04-28T06:19:06;99400.00;;;13.20;31.70
46412;BME280;32113;42.012;24.870;2023-04-28T06:21:31;99405.16;;;13.20;31.94
46412;BME280;32113;42.012;24.870;2023-04-28T06:23:57;99398.94;;;13.33;32.24
46412;BME280;32113;42.012;24.870;2023-04-28T06:26:23;99394.66;;;13.34;31.94
46412;BME280;32113;42.012;24.870;2023-04-28T06:28:48;99410.81;;;13.42;31.98
46412;BME280;32113;42.012;24.870;2023-04-28T06:31:13;99399.59;;;13.48;32.62
46412;BME280;32113;42.012;24.870;2023-04-28T06:33:39;99397.84;;;13.50;32.10
46412;BME280;32113;42.012;24.870;2023-04-28T06:36:04;99403.59;;;13.66;32.73
46412;BME280;32113;42.012;24.870;2023-04-28T06:38:29;99406.97;;;13.70;32.29
46412;BME280;32113;42.012;24.870;2023-04-28T06:40:55;99406.09;;;13.71;32.20
46412;BME280;32113;42.012;24.870;2023-04-28T06:43:20;99418.97;;;13.72;31.78
46412;BME280;32113;42.012;24.870;2023-04-28T06:45:45;99403.41;;;13.75;32.18
46412;BME280;32113;42.012;24.870;2023-04-28T06:48:11;99405.81;;;13.86;32.51
46412;BME280;32113;42.012;24.870;2023-04-28T06:50:36;99400.56;;;13.92;32.71
46412;BME280;32113;42.012;24.870;2023-04-28T06:53:01;99408.97;;;14.01;32.49
46412;BME280;32113;42.012;24.870;2023-04-28T06:55:26;99404.56;;;14.08;32.47
46412;BME280;32113;42.012;24.870;2023-04-28T06:57:52;99409.50;;;14.18;32.63
46412;BME280;32113;42.012;24.870;2023-04-28T07:00:17;99409.47;;;14.22;32.49
46412;BME280;32113;42.012;24.870;2023-04-28T07:02:42;99416.00;;;14.38;31.59
46412;BME280;32113;42.012;24.870;2023-04-28T07:05:08;99418.63;;;14.37;32.17
46412;BME280;32113;42.012;24.870;2023-04-28T07:07:33;99420.16;;;14.45;33.32
46412;BME280;32113;42.012;24.870;2023-04-28T07:09:58;99417.63;;;14.42;32.26
46412;BME280;32113;42.012;24.870;2023-04-28T07:12:25;99416.56;;;14.53;32.75
46412;BME280;32113;42.012;24.870;2023-04-28T07:14:50;99412.84;;;14.66;32.50
46412;BME280;32113;42.012;24.870;2023-04-28T07:17:15;99412.75;;;14.71;31.81
46412;BME280;32113;42.012;24.870;2023-04-28T07:19:41;99422.16;;;14.77;31.56
46412;BME280;32113;42.012;24.870;2023-04-28T07:22:06;99409.00;;;14.86;31.99
46412;BME280;32113;42.012;24.870;2023-04-28T07:24:31;99410.44;;;15.00;31.73
46412;BME280;32113;42.012;24.870;2023-04-28T07:26:57;99414.41;;;15.15;32.13
46412;BME280;32113;42.012;24.870;2023-04-28T07:29:23;99416.94;;;15.18;31.46
46412;BME280;32113;42.012;24.870;2023-04-28T07:31:49;99410.59;;;15.31;31.89
46412;BME280;32113;42.012;24.870;2023-04-28T07:34:14;99410.25;;;15.44;31.71
46412;BME280;32113;42.012;24.870;2023-04-28T07:36:39;99416.13;;;15.50;31.42
46412;BME280;32113;42.012;24.870;2023-04-28T07:39:05;99410.72;;;15.60;30.89
46412;BME280;32113;42.012;24.870;2023-04-28T07:41:34;99413.00;;;15.72;31.22
46412;BME280;32113;42.012;24.870;2023-04-28T07:44:00;99416.09;;;15.87;31.26
46412;BME280;32113;42.012;24.870;2023-04-28T07:46:25;99411.25;;;16.08;30.58
46412;BME280;32113;42.012;24.870;2023-04-28T07:48:51;99410.16;;;16.17;29.36
46412;BME280;32113;42.012;24.870;2023-04-28T07:51:16;99412.50;;;16.26;29.58
46412;BME280;32113;42.012;24.870;2023-04-28T07:53:41;99408.41;;;16.49;29.74
46412;BME280;32113;42.012;24.870;2023-04-28T07:56:06;99402.31;;;16.78;29.84
46412;BME280;32113;42.012;24.870;2023-04-28T07:58:32;99407.72;;;17.01;29.02
46412;BME280;32113;42.012;24.870;2023-04-28T08:00:57;99406.31;;;17.19;28.96
46412;BME280;32113;42.012;24.870;2023-04-28T08:03:22;99403.22;;;17.34;27.98
46412;BME280;32113;42.012;24.870;2023-04-28T08:05:48;99399.28;;;17.50;27.97
46412;BME280;32113;42.012;24.870;2023-04-28T08:08:13;99399.59;;;17.66;27.96
46412;BME280;32113;42.012;24.870;2023-04-28T08:10:39;99404.88;;;17.88;28.06
46412;BME280;32113;42.012;24.870;2023-04-28T08:13:06;99400.78;;;18.08;27.87
46412;BME280;32113;42.012;24.870;2023-04-28T08:15:31;99399.28;;;18.26;26.54
46412;BME280;32113;42.012;24.870;2023-04-28T08:17:57;99398.97;;;18.34;26.58
46412;BME280;32113;42.012;24.870;2023-04-28T08:20:22;99397.78;;;18.43;27.02
46412;BME280;32113;42.012;24.870;2023-04-28T08:22:47;99393.88;;;18.55;26.73
46412;BME280;32113;42.012;24.870;2023-04-28T08:25:12;99385.13;;;18.57;25.97
46412;BME280;32113;42.012;24.870;2023-04-28T08:27:38;99395.41;;;18.60;27.06
46412;BME280;32113;42.012;24.870;2023-04-28T08:30:06;99389.44;;;18.81;26.48
46412;BME280;32113;42.012;24.870;2023-04-28T08:32:31;99387.25;;;18.92;26.53
46412;BME280;32113;42.012;24.870;2023-04-28T08:34:56;99385.16;;;19.02;25.70
46412;BME280;32113;42.012;24.870;2023-04-28T08:37:22;99379.94;;;19.02;26.35
46412;BME280;32113;42.012;24.870;2023-04-28T08:39:47;99382.78;;;18.96;25.52
46412;BME280;32113;42.012;24.870;2023-04-28T08:42:12;99382.44;;;19.05;27.05
46412;BME280;32113;42.012;24.870;2023-04-28T08:44:38;99378.44;;;19.19;26.21
46412;BME280;32113;42.012;24.870;2023-04-28T08:47:11;99370.72;;;19.38;26.46
46412;BME280;32113;42.012;24.870;2023-04-28T08:49:37;99371.09;;;19.49;25.56
46412;BME280;32113;42.012;24.870;2023-04-28T08:52:02;99369.75;;;19.61;25.70
46412;BME280;32113;42.012;24.870;2023-04-28T08:54:30;99365.69;;;19.75;26.14
46412;BME280;32113;42.012;24.870;2023-04-28T08:57:00;99367.66;;;19.69;26.41
46412;BME280;32113;42.012;24.870;2023-04-28T08:59:26;99360.88;;;19.86;27.11
46412;BME280;32113;42.012;24.870;2023-04-28T09:01:51;99358.59;;;19.99;26.58
46412;BME280;32113;42.012;24.870;2023-04-28T09:04:17;99357.69;;;20.00;25.64
46412;BME280;32113;42.012;24.870;2023-04-28T09:06:42;99364.44;;;20.04;26.04
46412;BME280;32113;42.012;24.870;2023-04-28T09:11:52;99356.50;;;20.27;25.95
46412;BME280;32113;42.012;24.870;2023-04-28T09:14:19;99349.88;;;20.39;25.79
46412;BME280;32113;42.012;24.870;2023-04-28T09:16:44;99349.50;;;20.46;25.73
46412;BME280;32113;42.012;24.870;2023-04-28T09:19:10;99350.78;;;20.57;25.92
46412;BME280;32113;42.012;24.870;2023-04-28T09:21:48;99349.63;;;20.63;26.30
46412;BME280;32113;42.012;24.870;2023-04-28T09:26:58;99351.06;;;20.70;27.24
46412;BME280;32113;42.012;24.870;2023-04-28T09:29:24;99344.72;;;20.76;26.96
46412;BME280;32113;42.012;24.870;2023-04-28T09:31:50;99352.44;;;20.77;27.24
46412;BME280;32113;42.012;24.870;2023-04-28T09:34:15;99351.06;;;20.89;26.65
46412;BME280;32113;42.012;24.870;2023-04-28T09:36:40;99348.75;;;21.00;26.50
46412;BME280;32113;42.012;24.870;2023-04-28T09:39:06;99342.28;;;21.08;27.09
46412;BME280;32113;42.012;24.870;2023-04-28T09:41:38;99339.41;;;21.14;26.60
46412;BME280;32113;42.012;24.870;2023-04-28T09:46:39;99338.84;;;21.43;26.97
46412;BME280;32113;42.012;24.870;2023-04-28T09:49:04;99326.94;;;21.55;26.51
46412;BME280;32113;42.012;24.870;2023-04-28T09:51:29;99325.91;;;21.57;25.46
46412;BME280;32113;42.012;24.870;2023-04-28T09:53:55;99321.22;;;21.64;26.44
46412;BME280;32113;42.012;24.870;2023-04-28T09:56:23;99318.63;;;21.64;27.30
46412;BME280;32113;42.012;24.870;2023-04-28T09:58:51;99321.63;;;21.74;27.03
46412;BME280;32113;42.012;24.870;2023-04-28T10:01:17;99319.09;;;21.72;25.48
46412;BME280;32113;42.012;24.870;2023-04-28T10:03:43;99318.41;;;21.69;25.79
46412;BME280;32113;42.012;24.870;2023-04-28T10:06:10;99313.66;;;21.77;26.09
46412;BME280;32113;42.012;24.870;2023-04-28T10:08:35;99313.09;;;21.70;26.35
46412;BME280;32113;42.012;24.870;2023-04-28T10:11:00;99304.91;;;21.43;26.42
46412;BME280;32113;42.012;24.870;2023-04-28T10:13:26;99301.75;;;21.53;27.46
46412;BME280;32113;42.012;24.870;2023-04-28T10:15:51;99299.75;;;21.59;26.46
46412;BME280;32113;42.012;24.870;2023-04-28T10:18:19;99294.53;;;21.59;24.75
46412;BME280;32113;42.012;24.870;2023-04-28T10:20:48;99301.34;;;21.61;26.56
46412;BME280;32113;42.012;24.870;2023-04-28T10:25:57;99306.25;;;20.98;25.83
46412;BME280;32113;42.012;24.870;2023-04-28T10:28:24;99296.91;;;20.94;26.52
46412;BME280;32113;42.012;24.870;2023-04-28T10:31:09;99296.88;;;21.12;26.59
46412;BME280;32113;42.012;24.870;2023-04-28T10:33:35;99298.72;;;20.92;26.40
46412;BME280;32113;42.012;24.870;2023-04-28T10:36:01;99290.41;;;20.66;27.34
46412;BME280;32113;42.012;24.870;2023-04-28T10:38:28;99293.47;;;20.74;28.43
46412;BME280;32113;42.012;24.870;2023-04-28T10:40:53;99285.03;;;20.69;27.60
46412;BME280;32113;42.012;24.870;2023-04-28T10:48:18;99286.69;;;21.25;27.05
46412;BME280;32113;42.012;24.870;2023-04-28T10:58:34;99276.72;;;21.49;25.86
46412;BME280;32113;42.012;24.870;2023-04-28T11:06:20;99265.25;;;21.70;25.54
46412;BME280;32113;42.012;24.870;2023-04-28T11:08:50;99265.88;;;21.75;25.58
46412;BME280;32113;42.012;24.870;2023-04-28T11:11:17;99272.38;;;21.84;27.21
46412;BME280;32113;42.012;24.870;2023-04-28T11:13:42;99273.16;;;21.68;24.66
46412;BME280;32113;42.012;24.870;2023-04-28T11:16:10;99260.88;;;21.70;24.47
46412;BME280;32113;42.012;24.870;2023-04-28T11:21:16;99265.31;;;21.86;24.56
46412;BME280;32113;42.012;24.870;2023-04-28T11:23:41;99264.47;;;21.51;24.76
46412;BME280;32113;42.012;24.870;2023-04-28T11:26:07;99269.44;;;20.87;24.60
46412;BME280;32113;42.012;24.870;2023-04-28T11:28:32;99275.44;;;20.89;25.07
46412;BME280;32113;42.012;24.870;2023-04-28T11:31:10;99267.50;;;20.91;25.60
46412;BME280;32113;42.012;24.870;2023-04-28T11:33:36;99266.66;;;21.08;25.89
46412;BME280;32113;42.012;24.870;2023-04-28T11:36:02;99256.00;;;21.12;26.31
46412;BME280;32113;42.012;24.870;2023-04-28T11:38:27;99252.06;;;21.21;26.25
46412;BME280;32113;42.012;24.870;2023-04-28T11:40:56;99259.91;;;21.21;26.17
46412;BME280;32113;42.012;24.870;2023-04-28T11:43:28;99255.75;;;21.17;26.08
46412;BME280;32113;42.012;24.870;2023-04-28T11:45:54;99260.97;;;21.17;25.04
46412;BME280;32113;42.012;24.870;2023-04-28T11:48:19;99258.22;;;21.20;26.05
46412;BME280;32113;42.012;24.870;2023-04-28T11:50:45;99251.31;;;21.19;24.81
46412;BME280;32113;42.012;24.870;2023-04-28T11:53:10;99250.41;;;21.03;25.34
46412;BME280;32113;42.012;24.870;2023-04-28T11:55:35;99251.41;;;21.00;26.47
46412;BME280;32113;42.012;24.870;2023-04-28T11:58:17;99250.78;;;20.95;27.01
46412;BME280;32113;42.012;24.870;2023-04-28T12:00:42;99247.13;;;20.99;26.16
46412;BME280;32113;42.012;24.870;2023-04-28T12:03:08;99240.56;;;21.08;25.98
46412;BME280;32113;42.012;24.870;2023-04-28T12:05:33;99237.50;;;21.17;26.38
46412;BME280;32113;42.012;24.870;2023-04-28T12:08:00;99228.88;;;21.33;26.67
46412;BME280;32113;42.012;24.870;2023-04-28T12:10:25;99223.63;;;21.50;27.00
46412;BME280;32113;42.012;24.870;2023-04-28T12:12:50;99228.84;;;21.50;26.42
46412;BME280;32113;42.012;24.870;2023-04-28T12:15:16;99217.06;;;21.59;25.51
46412;BME280;32113;42.012;24.870;2023-04-28T12:17:41;99219.53;;;21.62;25.22
46412;BME280;32113;42.012;24.870;2023-04-28T12:20:07;99221.13;;;21.65;25.95
46412;BME280;32113;42.012;24.870;2023-04-28T12:22:43;99211.22;;;21.72;24.44
46412;BME280;32113;42.012;24.870;2023-04-28T12:25:09;99208.81;;;21.67;24.35
46412;BME280;32113;42.012;24.870;2023-04-28T12:27:36;99200.38;;;21.62;24.68
46412;BME280;32113;42.012;24.870;2023-04-28T12:32:46;99200.38;;;21.62;24.25
46412;BME280;32113;42.012;24.870;2023-04-28T12:35:11;99186.75;;;21.57;24.02
46412;BME280;32113;42.012;24.870;2023-04-28T12:37:37;99182.47;;;21.56;24.55
46412;BME280;32113;42.012;24.870;2023-04-28T12:40:04;99187.16;;;21.49;24.58
46412;BME280;32113;42.012;24.870;2023-04-28T12:42:30;99179.25;;;21.50;24.69
46412;BME280;32113;42.012;24.870;2023-04-28T12:44:56;99174.19;;;21.47;24.14
46412;BME280;32113;42.012;24.870;2023-04-28T12:47:21;99170.41;;;21.53;23.74
46412;BME280;32113;42.012;24.870;2023-04-28T12:49:47;99170.56;;;21.50;23.96
46412;BME280;32113;42.012;24.870;2023-04-28T12:52:14;99170.56;;;21.50;24.06
46412;BME280;32113;42.012;24.870;2023-04-28T12:54:40;99168.06;;;21.64;24.06
46412;BME280;32113;42.012;24.870;2023-04-28T12:57:10;99155.84;;;21.65;24.99
46412;BME280;32113;42.012;24.870;2023-04-28T12:59:37;99154.41;;;21.59;24.75
46412;BME280;32113;42.012;24.870;2023-04-28T13:02:02;99151.28;;;21.69;24.08
46412;BME280;32113;42.012;24.870;2023-04-28T13:04:28;99153.34;;;21.79;24.36
46412;BME280;32113;42.012;24.870;2023-04-28T13:06:53;99150.03;;;21.76;23.43
46412;BME280;32113;42.012;24.870;2023-04-28T13:09:18;99140.47;;;21.76;23.18
46412;BME280;32113;42.012;24.870;2023-04-28T13:11:44;99144.81;;;21.44;23.99
46412;BME280;32113;42.012;24.870;2023-04-28T13:14:10;99136.38;;;21.55;24.08
46412;BME280;32113;42.012;24.870;2023-04-28T13:16:35;99134.28;;;21.61;24.15